createdAt,value
2022-10-31T00:00:21.100Z,0.00
2022-10-31T00:01:21.242Z,0.00
2022-10-31T00:02:21.440Z,0.00
2022-10-31T00:03:21.589Z,0.00
2022-10-31T00:04:21.740Z,0.00
2022-10-31T00:05:21.933Z,0.00
2022-10-31T00:06:22.109Z,0.00
2022-10-31T00:07:22.299Z,0.00
2022-10-31T00:08:22.501Z,0.00
2022-10-31T00:09:22.649Z,0.00
2022-10-31T00:10:22.840Z,0.00
2022-10-31T00:11:22.988Z,0.00
2022-10-31T00:12:23.188Z,0.00
2022-10-31T00:13:23.361Z,0.00
2022-10-31T00:14:23.512Z,0.00
2022-10-31T00:15:23.692Z,0.00
2022-10-31T00:16:23.879Z,0.00
2022-10-31T00:17:24.029Z,0.00
2022-10-31T00:18:24.230Z,0.00
2022-10-31T00:19:24.381Z,0.00
2022-10-31T00:20:24.569Z,0.00
2022-10-31T00:21:24.750Z,0.00
2022-10-31T00:22:24.938Z,0.00
2022-10-31T00:23:25.140Z,0.00
2022-10-31T00:24:25.289Z,0.00
2022-10-31T00:25:25.479Z,0.00
2022-10-31T00:26:25.669Z,0.00
2022-10-31T00:27:25.858Z,0.00
2022-10-31T00:28:26.028Z,0.00
2022-10-31T00:29:26.180Z,0.00
2022-10-31T00:30:26.369Z,0.00
2022-10-31T00:31:26.562Z,0.00
2022-10-31T00:32:26.750Z,0.00
2022-10-31T00:33:26.940Z,0.00
2022-10-31T00:34:27.095Z,0.00
2022-10-31T00:35:27.279Z,0.00
2022-10-31T00:36:27.459Z,0.00
2022-10-31T00:37:27.641Z,0.00
2022-10-31T00:38:27.848Z,0.00
2022-10-31T00:39:27.999Z,0.00
2022-10-31T00:40:28.178Z,0.00
2022-10-31T00:41:28.368Z,0.00
2022-10-31T00:42:28.549Z,0.00
2022-10-31T00:43:28.759Z,0.00
2022-10-31T00:44:28.910Z,0.00
2022-10-31T00:45:29.109Z,0.00
2022-10-31T00:46:29.268Z,0.00
2022-10-31T00:47:29.421Z,0.00
2022-10-31T00:48:29.630Z,0.00
2022-10-31T00:49:29.779Z,0.00
2022-10-31T00:50:29.941Z,0.00
2022-10-31T00:51:30.129Z,0.00
2022-10-31T00:52:30.309Z,0.00
2022-10-31T00:53:30.508Z,0.00
2022-10-31T00:54:30.670Z,0.00
2022-10-31T00:55:30.850Z,0.00
2022-10-31T00:56:31.030Z,0.00
2022-10-31T00:57:31.195Z,0.00
2022-10-31T00:58:31.398Z,0.00
2022-10-31T00:59:31.546Z,0.00
2022-10-31T01:00:31.731Z,0.00
2022-10-31T01:01:32.065Z,0.00
2022-10-31T01:02:32.205Z,0.00
2022-10-31T01:03:32.290Z,0.00
2022-10-31T01:04:32.439Z,0.00
2022-10-31T01:05:32.620Z,0.00
2022-10-31T01:06:32.812Z,0.00
2022-10-31T01:07:33.001Z,0.00
2022-10-31T01:08:33.201Z,0.00
2022-10-31T01:09:33.376Z,0.00
2022-10-31T01:10:33.549Z,0.00
2022-10-31T01:11:33.709Z,0.00
2022-10-31T01:12:33.879Z,0.00
2022-10-31T01:13:34.080Z,0.00
2022-10-31T01:14:34.207Z,0.00
2022-10-31T01:15:34.387Z,0.00
2022-10-31T01:16:34.568Z,0.00
2022-10-31T01:17:34.777Z,0.00
2022-10-31T01:18:34.928Z,0.00
2022-10-31T01:19:35.116Z,0.00
2022-10-31T01:20:35.305Z,0.00
2022-10-31T01:21:35.487Z,0.00
2022-10-31T01:22:35.689Z,0.00
2022-10-31T01:23:35.842Z,0.00
2022-10-31T01:24:36.029Z,0.00
2022-10-31T01:25:36.210Z,0.00
2022-10-31T01:26:36.398Z,0.00
2022-10-31T01:27:36.600Z,0.00
2022-10-31T01:28:36.749Z,0.00
2022-10-31T01:29:36.938Z,0.00
2022-10-31T01:30:37.120Z,0.00
2022-10-31T01:31:37.307Z,0.00
2022-10-31T01:32:37.510Z,0.00
2022-10-31T01:33:37.660Z,0.00
2022-10-31T01:34:37.849Z,0.00
2022-10-31T01:35:38.038Z,0.00
2022-10-31T01:36:38.219Z,0.00
2022-10-31T01:37:38.419Z,0.00
2022-10-31T01:38:38.569Z,0.00
2022-10-31T01:39:38.759Z,0.00
2022-10-31T01:40:38.940Z,0.00
2022-10-31T01:41:39.127Z,0.00
2022-10-31T01:42:39.318Z,0.00
2022-10-31T01:43:39.479Z,0.00
2022-10-31T01:44:39.666Z,0.00
2022-10-31T01:45:39.848Z,0.00
2022-10-31T01:46:39.999Z,0.00
2022-10-31T01:47:40.199Z,0.00
2022-10-31T01:48:42.235Z,0.00
2022-10-31T01:49:40.509Z,0.00
2022-10-31T01:50:40.698Z,0.00
2022-10-31T01:51:40.878Z,0.00
2022-10-31T01:52:41.078Z,0.00
2022-10-31T01:53:41.230Z,0.00
2022-10-31T01:54:41.428Z,0.00
2022-10-31T01:55:41.589Z,0.00
2022-10-31T01:56:41.771Z,0.00
2022-10-31T01:57:41.970Z,0.00
2022-10-31T01:58:42.120Z,0.00
2022-10-31T01:59:42.310Z,0.00
2022-10-31T02:00:42.564Z,0.00
2022-10-31T02:01:42.789Z,0.00
2022-10-31T02:02:42.957Z,0.00
2022-10-31T02:03:42.959Z,0.00
2022-10-31T02:04:43.139Z,0.00
2022-10-31T02:05:43.328Z,0.00
2022-10-31T02:06:43.510Z,0.00
2022-10-31T02:07:43.714Z,0.00
2022-10-31T02:08:43.859Z,0.00
2022-10-31T02:09:44.055Z,0.00
2022-10-31T02:10:44.199Z,0.00
2022-10-31T02:11:44.390Z,0.00
2022-10-31T02:12:44.579Z,0.00
2022-10-31T02:13:44.751Z,0.00
2022-10-31T02:14:44.919Z,0.00
2022-10-31T02:15:45.096Z,0.00
2022-10-31T02:16:45.279Z,0.00
2022-10-31T02:17:45.487Z,0.00
2022-10-31T02:18:45.619Z,0.00
2022-10-31T02:19:45.789Z,0.00
2022-10-31T02:20:45.962Z,0.00
2022-10-31T02:21:46.145Z,0.00
2022-10-31T02:22:46.319Z,0.00
2022-10-31T02:23:49.449Z,0.00
2022-10-31T02:24:46.676Z,0.00
2022-10-31T02:25:46.857Z,0.00
2022-10-31T02:26:47.019Z,0.00
2022-10-31T02:27:47.228Z,0.00
2022-10-31T02:28:47.359Z,0.00
2022-10-31T02:29:47.541Z,0.00
2022-10-31T02:30:47.711Z,0.00
2022-10-31T02:31:47.902Z,0.00
2022-10-31T02:32:48.090Z,0.00
2022-10-31T02:33:48.229Z,0.00
2022-10-31T02:34:48.406Z,0.00
2022-10-31T02:35:48.578Z,0.00
2022-10-31T02:36:48.749Z,0.00
2022-10-31T02:37:48.938Z,0.00
2022-10-31T02:38:49.107Z,0.00
2022-10-31T02:39:49.280Z,0.00
2022-10-31T02:40:49.463Z,0.00
2022-10-31T02:41:49.649Z,0.00
2022-10-31T02:42:49.788Z,0.00
2022-10-31T02:43:49.958Z,0.00
2022-10-31T02:44:50.130Z,0.00
2022-10-31T02:45:50.299Z,0.00
2022-10-31T02:46:50.485Z,0.00
2022-10-31T02:47:50.658Z,0.00
2022-10-31T02:48:50.838Z,0.00
2022-10-31T02:49:51.017Z,0.00
2022-10-31T02:50:51.188Z,0.00
2022-10-31T02:51:51.405Z,0.00
2022-10-31T02:52:51.559Z,0.00
2022-10-31T02:53:51.728Z,0.00
2022-10-31T02:54:51.898Z,0.00
2022-10-31T02:55:52.076Z,0.00
2022-10-31T02:56:52.267Z,0.00
2022-10-31T02:57:52.437Z,0.00
2022-10-31T02:58:52.600Z,0.00
2022-10-31T02:59:52.779Z,0.00
2022-10-31T03:00:53.164Z,0.00
2022-10-31T03:01:53.251Z,0.00
2022-10-31T03:02:53.288Z,0.00
2022-10-31T03:03:53.458Z,0.00
2022-10-31T03:04:53.626Z,0.00
2022-10-31T03:05:53.798Z,0.00
2022-10-31T03:06:53.985Z,0.00
2022-10-31T03:07:54.158Z,0.00
2022-10-31T03:08:54.326Z,0.00
2022-10-31T03:09:54.498Z,0.00
2022-10-31T03:10:54.667Z,0.00
2022-10-31T03:11:54.848Z,0.00
2022-10-31T03:12:55.022Z,0.00
2022-10-31T03:13:55.198Z,0.00
2022-10-31T03:14:55.357Z,0.00
2022-10-31T03:15:55.538Z,0.00
2022-10-31T03:16:55.729Z,0.00
2022-10-31T03:17:55.897Z,0.00
2022-10-31T03:18:56.065Z,0.00
2022-10-31T03:19:56.238Z,0.00
2022-10-31T03:20:56.410Z,0.00
2022-10-31T03:21:56.598Z,0.00
2022-10-31T03:22:56.770Z,0.00
2022-10-31T03:23:56.952Z,0.00
2022-10-31T03:24:57.120Z,0.00
2022-10-31T03:25:57.288Z,0.00
2022-10-31T03:26:57.481Z,0.00
2022-10-31T03:27:58.129Z,0.00
2022-10-31T03:28:57.820Z,0.00
2022-10-31T03:29:57.988Z,0.00
2022-10-31T03:30:58.167Z,0.00
2022-10-31T03:31:58.358Z,0.00
2022-10-31T03:32:58.884Z,0.00
2022-10-31T03:33:58.668Z,0.00
2022-10-31T03:34:58.837Z,0.00
2022-10-31T03:35:59.033Z,0.00
2022-10-31T03:36:59.198Z,0.00
2022-10-31T03:38:01.763Z,0.00
2022-10-31T03:38:59.550Z,0.00
2022-10-31T03:39:59.725Z,0.00
2022-10-31T03:40:59.907Z,0.00
2022-10-31T03:42:00.090Z,0.00
2022-10-31T03:43:00.505Z,0.00
2022-10-31T03:44:00.427Z,0.00
2022-10-31T03:45:00.606Z,0.00
2022-10-31T03:46:00.795Z,0.00
2022-10-31T03:47:00.968Z,0.00
2022-10-31T03:48:01.423Z,0.00
2022-10-31T03:49:01.328Z,0.00
2022-10-31T03:50:01.499Z,0.00
2022-10-31T03:51:01.711Z,0.00
2022-10-31T03:52:01.848Z,0.00
2022-10-31T03:53:02.018Z,0.00
2022-10-31T03:54:02.209Z,0.00
2022-10-31T03:55:02.372Z,0.00
2022-10-31T03:56:02.561Z,0.00
2022-10-31T03:57:02.700Z,0.00
2022-10-31T03:58:03.480Z,0.00
2022-10-31T03:59:03.030Z,0.00
2022-10-31T04:00:03.219Z,0.00
2022-10-31T04:01:03.640Z,0.00
2022-10-31T04:02:03.640Z,0.00
2022-10-31T04:03:03.865Z,0.00
2022-10-31T04:04:03.893Z,0.00
2022-10-31T04:05:04.060Z,0.00
2022-10-31T04:06:04.283Z,0.00
2022-10-31T04:07:04.409Z,0.00
2022-10-31T04:08:04.578Z,0.00
2022-10-31T04:09:04.747Z,0.00
2022-10-31T04:10:04.917Z,0.00
2022-10-31T04:11:05.096Z,0.00
2022-10-31T04:12:05.258Z,0.00
2022-10-31T04:13:05.464Z,0.00
2022-10-31T04:14:05.616Z,0.00
2022-10-31T04:15:05.797Z,0.00
2022-10-31T04:16:05.986Z,0.00
2022-10-31T04:17:06.150Z,0.00
2022-10-31T04:18:06.317Z,0.00
2022-10-31T04:19:06.489Z,0.00
2022-10-31T04:20:06.658Z,0.00
2022-10-31T04:21:06.838Z,0.00
2022-10-31T04:22:07.017Z,0.00
2022-10-31T04:23:08.916Z,0.00
2022-10-31T04:24:08.347Z,0.00
2022-10-31T04:25:07.508Z,0.00
2022-10-31T04:26:07.700Z,0.00
2022-10-31T04:27:07.869Z,0.00
2022-10-31T04:28:08.123Z,0.00
2022-10-31T04:29:08.198Z,0.00
2022-10-31T04:30:08.372Z,0.00
2022-10-31T04:31:08.557Z,0.00
2022-10-31T04:32:08.736Z,0.00
2022-10-31T04:33:08.898Z,0.00
2022-10-31T04:34:09.067Z,0.00
2022-10-31T04:35:09.237Z,0.00
2022-10-31T04:36:09.429Z,0.00
2022-10-31T04:37:09.568Z,0.00
2022-10-31T04:38:09.731Z,0.00
2022-10-31T04:39:09.897Z,0.00
2022-10-31T04:40:10.065Z,0.00
2022-10-31T04:41:10.247Z,0.00
2022-10-31T04:42:10.418Z,0.00
2022-10-31T04:43:10.633Z,0.00
2022-10-31T04:44:10.756Z,0.00
2022-10-31T04:45:12.500Z,0.00
2022-10-31T04:46:11.111Z,0.00
2022-10-31T04:47:11.237Z,0.00
2022-10-31T04:48:11.420Z,0.00
2022-10-31T04:49:11.584Z,0.00
2022-10-31T04:50:11.756Z,0.00
2022-10-31T04:51:11.949Z,0.00
2022-10-31T04:52:12.116Z,0.00
2022-10-31T04:53:12.297Z,0.00
2022-10-31T04:54:12.464Z,0.00
2022-10-31T04:55:12.627Z,0.00
2022-10-31T04:56:12.818Z,0.00
2022-10-31T04:57:12.989Z,0.00
2022-10-31T04:58:13.201Z,0.00
2022-10-31T04:59:13.327Z,0.00
2022-10-31T05:00:13.513Z,0.00
2022-10-31T05:01:13.842Z,0.00
2022-10-31T05:02:14.020Z,0.00
2022-10-31T05:03:14.067Z,0.00
2022-10-31T05:04:14.237Z,0.00
2022-10-31T05:05:14.406Z,0.00
2022-10-31T05:06:14.597Z,0.00
2022-10-31T05:07:14.742Z,0.00
2022-10-31T05:08:14.917Z,0.00
2022-10-31T05:09:15.087Z,0.00
2022-10-31T05:10:15.269Z,0.00
2022-10-31T05:11:15.457Z,0.00
2022-10-31T05:12:15.627Z,0.00
2022-10-31T05:13:15.838Z,0.00
2022-10-31T05:14:15.988Z,0.00
2022-10-31T05:15:16.157Z,0.00
2022-10-31T05:16:16.346Z,0.00
2022-10-31T05:17:16.486Z,0.00
2022-10-31T05:18:16.657Z,0.00
2022-10-31T05:19:16.835Z,0.00
2022-10-31T05:20:17.007Z,0.00
2022-10-31T05:21:17.198Z,0.00
2022-10-31T05:22:17.337Z,0.00
2022-10-31T05:23:17.523Z,0.00
2022-10-31T05:24:17.685Z,0.00
2022-10-31T05:25:17.855Z,0.00
2022-10-31T05:26:18.026Z,4.00
2022-10-31T05:27:18.205Z,4.00
2022-10-31T05:28:18.396Z,0.00
2022-10-31T05:29:18.528Z,0.00
2022-10-31T05:30:18.705Z,4.00
2022-10-31T05:31:18.888Z,4.00
2022-10-31T05:32:19.056Z,4.00
2022-10-31T05:33:19.249Z,4.00
2022-10-31T05:34:19.415Z,4.00
2022-10-31T05:35:19.586Z,8.00
2022-10-31T05:36:19.777Z,8.00
2022-10-31T05:37:19.916Z,12.00
2022-10-31T05:38:20.096Z,12.00
2022-10-31T05:39:20.257Z,16.00
2022-10-31T05:40:20.415Z,16.00
2022-10-31T05:41:20.586Z,20.00
2022-10-31T05:42:20.746Z,24.00
2022-10-31T05:43:20.936Z,28.00
2022-10-31T05:44:21.097Z,32.00
2022-10-31T05:45:21.247Z,36.00
2022-10-31T05:46:21.548Z,40.00
2022-10-31T05:47:21.586Z,48.00
2022-10-31T05:48:21.788Z,56.00
2022-10-31T05:49:21.936Z,64.00
2022-10-31T05:50:22.156Z,68.00
2022-10-31T05:51:22.312Z,80.00
2022-10-31T05:52:22.468Z,92.00
2022-10-31T05:53:22.629Z,104.00
2022-10-31T05:54:22.812Z,116.00
2022-10-31T05:55:23.006Z,132.00
2022-10-31T05:56:23.158Z,144.00
2022-10-31T05:57:23.346Z,160.00
2022-10-31T05:58:23.536Z,176.00
2022-10-31T05:59:23.729Z,192.00
2022-10-31T06:00:23.907Z,212.00
2022-10-31T06:01:24.095Z,224.00
2022-10-31T06:02:24.220Z,248.00
2022-10-31T06:03:24.406Z,272.00
2022-10-31T06:04:24.602Z,296.00
2022-10-31T06:05:24.786Z,320.00
2022-10-31T06:06:24.947Z,344.00
2022-10-31T06:07:25.114Z,372.00
2022-10-31T06:08:25.266Z,404.00
2022-10-31T06:09:25.462Z,432.00
2022-10-31T06:10:25.677Z,460.00
2022-10-31T06:11:25.837Z,492.00
2022-10-31T06:12:25.986Z,524.00
2022-10-31T06:13:26.176Z,556.00
2022-10-31T06:14:26.336Z,584.00
2022-10-31T06:15:26.536Z,616.00
2022-10-31T06:16:26.696Z,656.00
2022-10-31T06:17:26.936Z,692.00
2022-10-31T06:18:27.047Z,732.00
2022-10-31T06:19:27.237Z,768.00
2022-10-31T06:20:27.410Z,800.00
2022-10-31T06:21:27.567Z,832.00
2022-10-31T06:22:27.757Z,868.00
2022-10-31T06:23:27.947Z,904.00
2022-10-31T06:24:28.096Z,940.00
2022-10-31T06:25:28.322Z,968.00
2022-10-31T06:26:28.470Z,1000.00
2022-10-31T06:27:28.633Z,1032.00
2022-10-31T06:28:28.808Z,1060.00
2022-10-31T06:29:29.004Z,1084.00
2022-10-31T06:30:29.189Z,1120.00
2022-10-31T06:31:29.371Z,1164.00
2022-10-31T06:32:29.534Z,1224.00
2022-10-31T06:33:29.725Z,1284.00
2022-10-31T06:34:29.887Z,1352.00
2022-10-31T06:35:30.088Z,1424.00
2022-10-31T06:36:30.242Z,1500.00
2022-10-31T06:37:30.426Z,1600.00
2022-10-31T06:38:30.576Z,1708.00
2022-10-31T06:39:30.776Z,1800.00
2022-10-31T06:40:30.945Z,1852.00
2022-10-31T06:41:31.107Z,1900.00
2022-10-31T06:42:31.266Z,1948.00
2022-10-31T06:43:31.449Z,2012.00
2022-10-31T06:44:31.636Z,2076.00
2022-10-31T06:45:31.815Z,2148.00
2022-10-31T06:46:31.970Z,2224.00
2022-10-31T06:47:32.473Z,2304.00
2022-10-31T06:48:32.326Z,2396.00
2022-10-31T06:49:32.488Z,2456.00
2022-10-31T06:50:32.665Z,2488.00
2022-10-31T06:51:32.816Z,2516.00
2022-10-31T06:52:32.980Z,2552.00
2022-10-31T06:53:33.177Z,2588.00
2022-10-31T06:54:33.328Z,2636.00
2022-10-31T06:55:33.538Z,2680.00
2022-10-31T06:56:33.717Z,2692.00
2022-10-31T06:57:33.876Z,2708.00
2022-10-31T06:58:34.037Z,2704.00
2022-10-31T06:59:34.196Z,2704.00
2022-10-31T07:00:34.377Z,2724.00
2022-10-31T07:01:34.664Z,2772.00
2022-10-31T07:02:34.740Z,2844.00
2022-10-31T07:03:34.867Z,2908.00
2022-10-31T07:04:35.016Z,3012.00
2022-10-31T07:05:35.196Z,3152.00
2022-10-31T07:06:35.370Z,3296.00
2022-10-31T07:07:35.546Z,3364.00
2022-10-31T07:08:35.728Z,3356.00
2022-10-31T07:09:35.877Z,3456.00
2022-10-31T07:10:40.113Z,3572.00
2022-10-31T07:11:36.226Z,3632.00
2022-10-31T07:12:36.397Z,3672.00
2022-10-31T07:13:36.562Z,3700.00
2022-10-31T07:14:36.735Z,3704.00
2022-10-31T07:15:36.908Z,3700.00
2022-10-31T07:16:37.062Z,3640.00
2022-10-31T07:17:37.261Z,3584.00
2022-10-31T07:18:37.416Z,3428.00
2022-10-31T07:19:37.578Z,3236.00
2022-10-31T07:20:37.747Z,3136.00
2022-10-31T07:21:37.909Z,3036.00
2022-10-31T07:22:38.067Z,2988.00
2022-10-31T07:23:38.228Z,2992.00
2022-10-31T07:24:38.390Z,2976.00
2022-10-31T07:25:38.567Z,2968.00
2022-10-31T07:26:38.719Z,2948.00
2022-10-31T07:27:41.722Z,2960.00
2022-10-31T07:28:39.047Z,2988.00
2022-10-31T07:29:39.217Z,3292.00
2022-10-31T07:30:39.387Z,3600.00
2022-10-31T07:31:39.546Z,3868.00
2022-10-31T07:32:39.708Z,4280.00
2022-10-31T07:33:39.867Z,4324.00
2022-10-31T07:34:44.863Z,4212.00
2022-10-31T07:35:41.216Z,4056.00
2022-10-31T07:36:40.377Z,4064.00
2022-10-31T07:37:40.538Z,4124.00
2022-10-31T07:38:40.698Z,4200.00
2022-10-31T07:39:40.857Z,4292.00
2022-10-31T07:40:41.028Z,4432.00
2022-10-31T07:41:41.187Z,4408.00
2022-10-31T07:42:41.349Z,4300.00
2022-10-31T07:43:41.564Z,4276.00
2022-10-31T07:44:41.659Z,4188.00
2022-10-31T07:45:41.875Z,3728.00
2022-10-31T07:46:42.017Z,2900.00
2022-10-31T07:47:42.193Z,2704.00
2022-10-31T07:48:42.347Z,2632.00
2022-10-31T07:49:42.517Z,2604.00
2022-10-31T07:50:42.690Z,2596.00
2022-10-31T07:51:46.433Z,2604.00
2022-10-31T07:52:43.032Z,2628.00
2022-10-31T07:53:43.191Z,2648.00
2022-10-31T07:54:43.350Z,2672.00
2022-10-31T07:55:43.518Z,2696.00
2022-10-31T07:56:43.678Z,2736.00
2022-10-31T07:57:43.842Z,2784.00
2022-10-31T07:58:43.999Z,2840.00
2022-10-31T07:59:44.166Z,2904.00
2022-10-31T08:00:44.434Z,2972.00
2022-10-31T08:01:44.488Z,3020.00
2022-10-31T08:02:44.649Z,3088.00
2022-10-31T08:03:44.849Z,3188.00
2022-10-31T08:04:44.999Z,3308.00
2022-10-31T08:05:45.218Z,3464.00
2022-10-31T08:06:45.359Z,3600.00
2022-10-31T08:07:45.537Z,3728.00
2022-10-31T08:08:45.689Z,3812.00
2022-10-31T08:09:45.885Z,3864.00
2022-10-31T08:10:46.059Z,3904.00
2022-10-31T08:11:46.219Z,3932.00
2022-10-31T08:12:46.388Z,3972.00
2022-10-31T08:13:46.562Z,4040.00
2022-10-31T08:14:46.710Z,4120.00
2022-10-31T08:15:46.923Z,4224.00
2022-10-31T08:16:47.110Z,4368.00
2022-10-31T08:17:47.249Z,4552.00
2022-10-31T08:18:47.419Z,4860.00
2022-10-31T08:19:47.614Z,5264.00
2022-10-31T08:20:47.781Z,6348.00
2022-10-31T08:21:47.940Z,6952.00
2022-10-31T08:22:48.109Z,6660.00
2022-10-31T08:23:48.271Z,6016.00
2022-10-31T08:24:48.468Z,5788.00
2022-10-31T08:25:48.621Z,5740.00
2022-10-31T08:26:48.788Z,6684.00
2022-10-31T08:27:48.951Z,8024.00
2022-10-31T08:28:49.108Z,7028.00
2022-10-31T08:29:49.269Z,9652.00
2022-10-31T08:30:49.441Z,7776.00
2022-10-31T08:31:49.607Z,7928.00
2022-10-31T08:32:49.761Z,9824.00
2022-10-31T08:33:49.946Z,10736.00
2022-10-31T08:34:50.113Z,10736.00
2022-10-31T08:35:50.322Z,11320.00
2022-10-31T08:36:50.460Z,10252.00
2022-10-31T08:37:50.650Z,9804.00
2022-10-31T08:38:50.814Z,9076.00
2022-10-31T08:39:50.982Z,10080.00
2022-10-31T08:40:51.156Z,9424.00
2022-10-31T08:41:51.322Z,5792.00
2022-10-31T08:42:51.483Z,5592.00
2022-10-31T08:43:51.642Z,6120.00
2022-10-31T08:44:51.801Z,9012.00
2022-10-31T08:45:51.983Z,9532.00
2022-10-31T08:46:52.140Z,6296.00
2022-10-31T08:47:52.395Z,6552.00
2022-10-31T08:48:52.492Z,7768.00
2022-10-31T08:49:52.682Z,8324.00
2022-10-31T08:50:52.862Z,5896.00
2022-10-31T08:51:53.012Z,6180.00
2022-10-31T08:53:04.660Z,6004.00
2022-10-31T08:53:54.343Z,8620.00
2022-10-31T08:54:53.522Z,13072.00
2022-10-31T08:55:53.702Z,12560.00
2022-10-31T08:56:53.874Z,11924.00
2022-10-31T08:57:54.053Z,11852.00
2022-10-31T08:58:54.234Z,12216.00
2022-10-31T08:59:54.417Z,12232.00
2022-10-31T09:00:54.659Z,12228.00
2022-10-31T09:01:55.003Z,12404.00
2022-10-31T09:02:54.923Z,11760.00
2022-10-31T09:03:55.113Z,13296.00
2022-10-31T09:04:55.295Z,13616.00
2022-10-31T09:05:55.566Z,12912.00
2022-10-31T09:07:24.844Z,13740.00
2022-10-31T09:07:56.923Z,15360.00
2022-10-31T09:08:56.019Z,16032.00
2022-10-31T09:09:56.204Z,10196.00
2022-10-31T09:10:56.385Z,15520.00
2022-10-31T09:11:56.545Z,14800.00
2022-10-31T09:12:56.732Z,12768.00
2022-10-31T09:13:56.939Z,15584.00
2022-10-31T09:14:57.086Z,16448.00
2022-10-31T09:15:57.295Z,18336.00
2022-10-31T09:16:57.446Z,18720.00
2022-10-31T09:17:57.876Z,17280.00
2022-10-31T09:18:57.803Z,17408.00
2022-10-31T09:19:57.998Z,16800.00
2022-10-31T09:20:58.141Z,12820.00
2022-10-31T09:21:58.324Z,11016.00
2022-10-31T09:22:58.492Z,11548.00
2022-10-31T09:23:58.666Z,13200.00
2022-10-31T09:24:58.857Z,14024.00
2022-10-31T09:25:59.020Z,8920.00
2022-10-31T09:26:59.178Z,10548.00
2022-10-31T09:27:59.968Z,7300.00
2022-10-31T09:28:59.546Z,5764.00
2022-10-31T09:29:59.717Z,5896.00
2022-10-31T09:30:59.874Z,5948.00
2022-10-31T09:32:00.059Z,12644.00
2022-10-31T09:33:00.218Z,16000.00
2022-10-31T09:34:00.407Z,17312.00
2022-10-31T09:35:00.625Z,16096.00
2022-10-31T09:36:00.750Z,15492.00
2022-10-31T09:37:00.917Z,15552.00
2022-10-31T09:38:01.484Z,13276.00
2022-10-31T09:39:01.271Z,10480.00
2022-10-31T09:40:01.491Z,8956.00
2022-10-31T09:41:01.638Z,8060.00
2022-10-31T09:42:01.844Z,7140.00
2022-10-31T09:43:01.992Z,6664.00
2022-10-31T09:44:02.169Z,6896.00
2022-10-31T09:45:02.350Z,6804.00
2022-10-31T09:46:02.518Z,6628.00
2022-10-31T09:47:02.679Z,7080.00
2022-10-31T09:48:03.251Z,6920.00
2022-10-31T09:49:03.001Z,6604.00
2022-10-31T09:50:03.186Z,6360.00
2022-10-31T09:51:03.353Z,6572.00
2022-10-31T09:52:03.552Z,7036.00
2022-10-31T09:53:03.899Z,6444.00
2022-10-31T09:54:03.860Z,6284.00
2022-10-31T09:55:04.040Z,6556.00
2022-10-31T09:56:04.187Z,6868.00
2022-10-31T09:57:04.381Z,7032.00
2022-10-31T09:58:04.539Z,7192.00
2022-10-31T09:59:04.703Z,7252.00
2022-10-31T10:00:04.886Z,7208.00
2022-10-31T10:01:05.152Z,7216.00
2022-10-31T10:02:05.280Z,7088.00
2022-10-31T10:03:05.370Z,6948.00
2022-10-31T10:04:05.561Z,6828.00
2022-10-31T10:05:05.761Z,6828.00
2022-10-31T10:06:05.936Z,6780.00
2022-10-31T10:07:06.130Z,6208.00
2022-10-31T10:08:06.292Z,6248.00
2022-10-31T10:09:06.493Z,6228.00
2022-10-31T10:10:06.674Z,6404.00
2022-10-31T10:11:06.849Z,6448.00
2022-10-31T10:12:07.012Z,6452.00
2022-10-31T10:13:09.350Z,6444.00
2022-10-31T10:14:07.381Z,6432.00
2022-10-31T10:15:07.591Z,6428.00
2022-10-31T10:16:07.752Z,6404.00
2022-10-31T10:17:07.925Z,6184.00
2022-10-31T10:18:08.089Z,6176.00
2022-10-31T10:19:08.249Z,6080.00
2022-10-31T10:20:08.471Z,5944.00
2022-10-31T10:21:08.592Z,5892.00
2022-10-31T10:22:08.826Z,5884.00
2022-10-31T10:23:08.944Z,5912.00
2022-10-31T10:24:09.100Z,5896.00
2022-10-31T10:25:09.283Z,5960.00
2022-10-31T10:26:11.372Z,5876.00
2022-10-31T10:27:09.623Z,5884.00
2022-10-31T10:28:09.782Z,5580.00
2022-10-31T10:29:09.952Z,5452.00
2022-10-31T10:30:10.142Z,5576.00
2022-10-31T10:31:10.313Z,5704.00
2022-10-31T10:32:10.484Z,5716.00
2022-10-31T10:33:10.664Z,5704.00
2022-10-31T10:34:10.834Z,5692.00
2022-10-31T10:35:11.023Z,5704.00
2022-10-31T10:36:11.184Z,5740.00
2022-10-31T10:37:11.361Z,5744.00
2022-10-31T10:38:11.533Z,5696.00
2022-10-31T10:39:11.713Z,5676.00
2022-10-31T10:40:11.884Z,5660.00
2022-10-31T10:41:12.053Z,5620.00
2022-10-31T10:42:12.309Z,5468.00
2022-10-31T10:43:12.419Z,5388.00
2022-10-31T10:44:12.575Z,5304.00
2022-10-31T10:45:12.765Z,5168.00
2022-10-31T10:46:12.934Z,5148.00
2022-10-31T10:47:13.126Z,5012.00
2022-10-31T10:48:13.295Z,5040.00
2022-10-31T10:49:13.464Z,4992.00
2022-10-31T10:50:13.656Z,4928.00
2022-10-31T10:51:25.645Z,4948.00
2022-10-31T10:53:15.204Z,5108.00
2022-10-31T10:54:14.379Z,5136.00
2022-10-31T10:55:14.576Z,5072.00
2022-10-31T10:56:14.734Z,5072.00
2022-10-31T10:57:14.896Z,5056.00
2022-10-31T10:58:15.077Z,5008.00
2022-10-31T10:59:15.257Z,4992.00
2022-10-31T11:00:15.437Z,4968.00
2022-10-31T11:02:15.805Z,4892.00
2022-10-31T11:03:15.979Z,4904.00
2022-10-31T11:04:16.146Z,4932.00
2022-10-31T11:05:16.337Z,4972.00
2022-10-31T11:06:16.499Z,4988.00
2022-10-31T11:07:16.676Z,4960.00
2022-10-31T11:08:16.847Z,4940.00
2022-10-31T11:09:17.030Z,4908.00
2022-10-31T11:10:17.208Z,4884.00
2022-10-31T11:11:17.402Z,4872.00
2022-10-31T11:12:17.556Z,4848.00
2022-10-31T11:13:17.735Z,4836.00
2022-10-31T11:14:17.910Z,4808.00
2022-10-31T11:15:18.097Z,4816.00
2022-10-31T11:16:18.267Z,4852.00
2022-10-31T11:17:18.447Z,4792.00
2022-10-31T11:18:18.657Z,4732.00
2022-10-31T11:19:18.810Z,4728.00
2022-10-31T11:20:19.326Z,4740.00
2022-10-31T11:21:19.170Z,4732.00
2022-10-31T11:22:19.351Z,4736.00
2022-10-31T11:23:19.539Z,4716.00
2022-10-31T11:24:19.718Z,4684.00
2022-10-31T11:25:19.898Z,4636.00
2022-10-31T11:26:20.058Z,4652.00
2022-10-31T11:27:20.246Z,4648.00
2022-10-31T11:28:20.419Z,4588.00
2022-10-31T11:29:20.599Z,4576.00
2022-10-31T11:30:20.789Z,4568.00
2022-10-31T11:31:20.967Z,4544.00
2022-10-31T11:32:21.138Z,4532.00
2022-10-31T11:33:21.319Z,4520.00
2022-10-31T11:34:21.489Z,4508.00
2022-10-31T11:35:21.679Z,4476.00
2022-10-31T11:36:21.851Z,4472.00
2022-10-31T11:37:22.028Z,4384.00
2022-10-31T11:38:22.229Z,4400.00
2022-10-31T11:39:22.388Z,4404.00
2022-10-31T11:40:22.580Z,4364.00
2022-10-31T11:41:22.762Z,4248.00
2022-10-31T11:42:22.939Z,4256.00
2022-10-31T11:43:23.110Z,4280.00
2022-10-31T11:44:23.291Z,4340.00
2022-10-31T11:45:23.494Z,4412.00
2022-10-31T11:46:23.622Z,4384.00
2022-10-31T11:47:23.801Z,4352.00
2022-10-31T11:48:23.981Z,4328.00
2022-10-31T11:49:24.161Z,4376.00
2022-10-31T11:50:24.350Z,4396.00
2022-10-31T11:51:24.524Z,4416.00
2022-10-31T11:52:24.690Z,4376.00
2022-10-31T11:53:24.870Z,4532.00
2022-10-31T11:54:25.041Z,4668.00
2022-10-31T11:55:25.252Z,4552.00
2022-10-31T11:56:25.381Z,4600.00
2022-10-31T11:57:25.550Z,4516.00
2022-10-31T11:58:25.723Z,4712.00
2022-10-31T11:59:25.901Z,4944.00
2022-10-31T12:00:26.089Z,4820.00
2022-10-31T12:01:26.296Z,4896.00
2022-10-31T12:02:26.497Z,5240.00
2022-10-31T12:03:26.592Z,5280.00
2022-10-31T12:04:26.781Z,5488.00
2022-10-31T12:05:26.990Z,6000.00
2022-10-31T12:06:27.141Z,6432.00
2022-10-31T12:07:27.329Z,6288.00
2022-10-31T12:08:27.492Z,6516.00
2022-10-31T12:09:27.672Z,6484.00
2022-10-31T12:10:27.842Z,6672.00
2022-10-31T12:11:28.023Z,6612.00
2022-10-31T12:12:28.191Z,6508.00
2022-10-31T12:13:28.362Z,6328.00
2022-10-31T12:14:28.564Z,5920.00
2022-10-31T12:15:28.722Z,5956.00
2022-10-31T12:16:28.911Z,6080.00
2022-10-31T12:17:29.073Z,6424.00
2022-10-31T12:18:29.242Z,5596.00
2022-10-31T12:19:29.442Z,5104.00
2022-10-31T12:20:29.621Z,5232.00
2022-10-31T12:21:29.805Z,5636.00
2022-10-31T12:22:29.973Z,6172.00
2022-10-31T12:23:30.153Z,5660.00
2022-10-31T12:24:30.353Z,4948.00
2022-10-31T12:25:30.492Z,4524.00
2022-10-31T12:26:30.663Z,4440.00
2022-10-31T12:27:30.849Z,4396.00
2022-10-31T12:28:31.014Z,4592.00
2022-10-31T12:29:31.203Z,4484.00
2022-10-31T12:30:31.363Z,4600.00
2022-10-31T12:31:31.537Z,4656.00
2022-10-31T12:32:31.726Z,4568.00
2022-10-31T12:33:31.885Z,4464.00
2022-10-31T12:34:32.056Z,4360.00
2022-10-31T12:35:32.277Z,4192.00
2022-10-31T12:36:32.415Z,4336.00
2022-10-31T12:37:32.605Z,4796.00
2022-10-31T12:38:32.768Z,4448.00
2022-10-31T12:39:32.954Z,4240.00
2022-10-31T12:40:33.120Z,5260.00